Time;durP1;ratioP1;P1;durP2;ratioP2;P2;SDS_P1;SDS_P2;PMS_P1;PMS_P2;Temp;Humidity;BMP_temperature;BMP_pressure;BME280_temperature;BME280_humidity;BME280_pressure;Samples;Min_cycle;Max_cycle;Signal;HPM_P1;HPM_P2
2022/03/29 00:00:29;;;;;;;27.20;8.27;;;;;;;;;;5113252;28;20664;-70
2022/03/29 00:02:56;;;;;;;37.65;10.00;;;;;;;;;;5113151;28;20585;-70
2022/03/29 00:05:24;;;;;;;24.77;8.65;;;;;;;;;;5113208;28;20210;-71
2022/03/29 00:07:53;;;;;;;31.77;8.60;;;;;;;;;;5113345;28;20208;-71
2022/03/29 00:10:21;;;;;;;27.15;8.93;;;;;;;;;;5112962;28;20212;-70
2022/03/29 00:12:50;;;;;;;29.13;10.57;;;;;;;;;;5113048;28;20588;-71
2022/03/29 00:15:18;;;;;;;36.88;11.32;;;;;;;;;;5112798;28;20705;-72
2022/03/29 00:23:18;;;;;;;32.20;9.68;;;;;;;;;;5112760;28;20226;-70
2022/03/29 00:25:45;;;;;;;32.30;9.88;;;;;;;;;;5112824;28;20669;-72
2022/03/29 00:28:13;;;;;;;26.75;7.70;;;;;;;;;;5112850;28;20208;-71
2022/03/29 00:30:41;;;;;;;29.65;10.02;;;;;;;;;;5112787;28;20234;-71
2022/03/29 00:33:08;;;;;;;30.15;10.07;;;;;;;;;;5112617;28;20232;-71
2022/03/29 00:35:36;;;;;;;25.45;8.93;;;;;;;;;;5112583;28;20239;-71
2022/03/29 00:38:03;;;;;;;25.80;8.25;;;;;;;;;;5112416;28;20232;-70
2022/03/29 00:40:32;;;;;;;34.30;8.43;;;;;;;;;;5112486;28;20614;-70
2022/03/29 00:43:00;;;;;;;21.67;8.05;;;;;;;;;;5093024;28;20212;-70
2022/03/29 00:45:28;;;;;;;26.25;8.38;;;;;;;;;;5092689;28;20580;-70
2022/03/29 00:47:55;;;;;;;26.95;9.57;;;;;;;;;;5092969;28;20324;-70
2022/03/29 00:50:23;;;;;;;29.95;9.93;;;;;;;;;;5092820;28;20238;-70
2022/03/29 00:52:51;;;;;;;29.45;8.50;;;;;;;;;;5093023;28;20229;-70
2022/03/29 00:55:18;;;;;;;33.38;10.02;;;;;;;;;;5092803;28;20218;-70
2022/03/29 00:57:50;;;;;;;29.92;9.35;;;;;;;;;;5092928;28;20210;-70
2022/03/29 01:00:18;;;;;;;28.40;9.07;;;;;;;;;;5092989;28;20202;-70
2022/03/29 01:02:46;;;;;;;28.48;8.90;;;;;;;;;;5086031;28;20601;-71
2022/03/29 01:05:13;;;;;;;37.85;11.50;;;;;;;;;;5092739;28;20206;-70
2022/03/29 01:07:40;;;;;;;24.83;7.07;;;;;;;;;;5092569;28;20210;-70
2022/03/29 01:10:08;;;;;;;25.30;8.60;;;;;;;;;;5092824;28;20308;-70
2022/03/29 01:12:37;;;;;;;24.08;8.65;;;;;;;;;;5092746;28;20214;-70
2022/03/29 01:15:11;;;;;;;27.05;9.15;;;;;;;;;;5092233;28;20233;-71
2022/03/29 01:17:41;;;;;;;34.60;9.38;;;;;;;;;;5092743;28;20205;-70
2022/03/29 01:20:10;;;;;;;27.73;9.02;;;;;;;;;;5092640;28;20209;-70
2022/03/29 01:22:40;;;;;;;24.90;7.57;;;;;;;;;;5100851;28;20213;-70
2022/03/29 01:25:08;;;;;;;28.50;9.05;;;;;;;;;;5112143;28;20213;-70
2022/03/29 01:27:37;;;;;;;29.90;8.38;;;;;;;;;;5111754;28;20208;-70
2022/03/29 01:30:04;;;;;;;26.42;8.63;;;;;;;;;;5112012;28;20200;-70
2022/03/29 01:32:32;;;;;;;34.90;9.68;;;;;;;;;;5111942;28;20219;-72
2022/03/29 01:35:01;;;;;;;24.35;8.52;;;;;;;;;;5111887;28;20276;-70
2022/03/29 01:37:28;;;;;;;27.83;8.70;;;;;;;;;;5111644;28;20204;-70
2022/03/29 01:39:57;;;;;;;27.02;9.30;;;;;;;;;;5111365;28;20295;-70
2022/03/29 01:42:24;;;;;;;37.42;9.32;;;;;;;;;;5111494;28;20708;-70
2022/03/29 01:44:52;;;;;;;22.17;7.53;;;;;;;;;;5111667;28;20625;-70
2022/03/29 01:47:22;;;;;;;34.30;10.32;;;;;;;;;;5111345;28;20209;-69
2022/03/29 01:49:50;;;;;;;26.55;8.48;;;;;;;;;;5111715;28;20205;-70
2022/03/29 01:52:19;;;;;;;31.38;9.23;;;;;;;;;;5111682;28;20625;-70
2022/03/29 01:54:47;;;;;;;32.53;9.57;;;;;;;;;;5101465;28;20273;-70
2022/03/29 01:57:16;;;;;;;29.85;8.73;;;;;;;;;;5115524;28;20210;-70
2022/03/29 02:02:29;;;;;;;31.52;8.93;;;;;;;;;;5116157;28;20729;-70
2022/03/29 02:04:57;;;;;;;28.70;9.50;;;;;;;;;;5089277;28;20213;-70
2022/03/29 02:07:25;;;;;;;33.70;9.88;;;;;;;;;;5095770;28;20691;-70
2022/03/29 02:09:52;;;;;;;28.88;9.00;;;;;;;;;;5096081;28;20215;-70
2022/03/29 02:12:21;;;;;;;28.52;9.00;;;;;;;;;;5096206;28;20224;-70
2022/03/29 02:14:48;;;;;;;32.03;9.65;;;;;;;;;;5095989;28;20230;-70
2022/03/29 02:17:16;;;;;;;32.90;10.30;;;;;;;;;;5095758;28;20206;-70
2022/03/29 02:19:43;;;;;;;37.22;9.50;;;;;;;;;;5095769;28;20228;-70
2022/03/29 02:22:11;;;;;;;27.95;8.60;;;;;;;;;;5096138;28;20208;-70
2022/03/29 02:24:39;;;;;;;24.73;7.82;;;;;;;;;;5095884;28;20600;-70
2022/03/29 02:27:06;;;;;;;33.17;10.10;;;;;;;;;;5088585;28;20220;-70
2022/03/29 02:29:35;;;;;;;23.70;8.63;;;;;;;;;;5095632;28;20204;-70
2022/03/29 02:32:02;;;;;;;26.38;9.57;;;;;;;;;;5095766;28;20209;-70
2022/03/29 02:34:30;;;;;;;25.77;9.35;;;;;;;;;;5095482;28;20323;-70
2022/03/29 02:36:57;;;;;;;25.48;8.98;;;;;;;;;;5095517;28;20258;-70
2022/03/29 02:39:25;;;;;;;24.75;8.65;;;;;;;;;;5095217;28;20255;-70
2022/03/29 02:41:52;;;;;;;29.20;9.27;;;;;;;;;;5095477;28;20209;-70
2022/03/29 02:44:20;;;;;;;28.85;9.45;;;;;;;;;;5095819;28;20212;-70
2022/03/29 02:46:48;;;;;;;26.23;9.60;;;;;;;;;;5114744;28;20220;-70
2022/03/29 02:49:16;;;;;;;27.58;9.30;;;;;;;;;;5087869;28;20752;-70
2022/03/29 02:51:44;;;;;;;24.52;9.48;;;;;;;;;;5095179;28;20244;-70
2022/03/29 02:54:11;;;;;;;26.45;8.68;;;;;;;;;;5095069;28;20229;-70
2022/03/29 02:56:39;;;;;;;35.45;9.07;;;;;;;;;;5095156;28;20671;-70
2022/03/29 02:59:07;;;;;;;30.73;9.75;;;;;;;;;;5094909;28;20296;-70
2022/03/29 03:01:35;;;;;;;28.25;9.48;;;;;;;;;;5094937;28;20232;-70
2022/03/29 03:04:04;;;;;;;24.98;9.05;;;;;;;;;;5094944;28;20217;-70
2022/03/29 03:06:31;;;;;;;31.52;9.70;;;;;;;;;;5094550;28;20201;-70
2022/03/29 03:08:58;;;;;;;27.25;9.48;;;;;;;;;;5094985;28;20258;-70
2022/03/29 03:11:26;;;;;;;26.25;9.10;;;;;;;;;;5094721;28;20297;-70
2022/03/29 03:13:54;;;;;;;26.25;8.63;;;;;;;;;;5094745;28;20264;-70
2022/03/29 03:16:21;;;;;;;23.33;8.20;;;;;;;;;;5094716;28;20221;-70
2022/03/29 03:18:49;;;;;;;24.80;8.25;;;;;;;;;;5094910;28;20204;-70
2022/03/29 03:21:18;;;;;;;32.03;10.15;;;;;;;;;;5094396;28;20209;-72
2022/03/29 03:23:45;;;;;;;31.23;9.85;;;;;;;;;;5094821;28;20200;-72
2022/03/29 03:26:12;;;;;;;23.90;7.97;;;;;;;;;;5094661;28;20207;-70
2022/03/29 03:28:40;;;;;;;25.25;8.98;;;;;;;;;;5094418;28;20231;-72
2022/03/29 03:31:08;;;;;;;26.33;9.15;;;;;;;;;;5094300;28;20210;-70
2022/03/29 03:33:36;;;;;;;24.83;8.70;;;;;;;;;;5094886;28;20206;-71
2022/03/29 03:36:03;;;;;;;23.70;8.77;;;;;;;;;;5094345;28;20210;-70
2022/03/29 03:38:32;;;;;;;31.40;10.05;;;;;;;;;;5094074;28;20224;-71
2022/03/29 03:40:59;;;;;;;32.72;8.93;;;;;;;;;;5094299;28;20208;-72
2022/03/29 03:43:27;;;;;;;27.10;9.25;;;;;;;;;;5093999;28;20209;-71
2022/03/29 03:45:54;;;;;;;28.33;8.70;;;;;;;;;;5094249;28;20622;-71
2022/03/29 03:48:22;;;;;;;29.48;9.20;;;;;;;;;;5093931;28;20740;-71
2022/03/29 03:50:50;;;;;;;29.98;9.10;;;;;;;;;;5094185;28;20222;-71
2022/03/29 03:53:17;;;;;;;32.72;9.45;;;;;;;;;;5093930;28;20288;-71
2022/03/29 03:55:46;;;;;;;27.35;8.75;;;;;;;;;;5093898;28;20225;-71
2022/03/29 03:58:13;;;;;;;22.70;7.15;;;;;;;;;;5093870;28;20685;-72
2022/03/29 04:00:41;;;;;;;26.10;8.80;;;;;;;;;;5094217;28;20584;-71
2022/03/29 04:03:09;;;;;;;38.80;11.60;;;;;;;;;;5093762;28;20207;-71
2022/03/29 04:05:37;;;;;;;25.63;8.43;;;;;;;;;;5093875;28;20673;-72
2022/03/29 04:08:05;;;;;;;27.27;9.00;;;;;;;;;;5093638;28;20204;-72
2022/03/29 04:10:33;;;;;;;31.63;9.55;;;;;;;;;;5094054;28;20210;-72
2022/03/29 04:13:03;;;;;;;32.55;10.18;;;;;;;;;;5093856;28;20209;-71
2022/03/29 04:15:30;;;;;;;26.20;8.75;;;;;;;;;;5093738;28;20240;-71
2022/03/29 04:18:00;;;;;;;25.13;8.98;;;;;;;;;;5092506;28;20216;-71
2022/03/29 04:20:29;;;;;;;27.67;8.18;;;;;;;;;;5093455;28;20236;-71
2022/03/29 04:22:56;;;;;;;25.17;8.88;;;;;;;;;;5093726;28;20208;-71
2022/03/29 04:25:25;;;;;;;25.30;9.45;;;;;;;;;;5086771;28;20303;-71
2022/03/29 04:27:53;;;;;;;30.23;9.48;;;;;;;;;;5093529;28;20208;-72
2022/03/29 04:30:21;;;;;;;28.20;8.98;;;;;;;;;;5093361;28;20214;-71
2022/03/29 04:32:49;;;;;;;39.88;12.40;;;;;;;;;;5093284;28;20669;-71
2022/03/29 04:35:16;;;;;;;77.78;23.58;;;;;;;;;;5092862;28;20289;-71
2022/03/29 04:37:45;;;;;;;60.45;18.55;;;;;;;;;;5093173;28;20290;-71
2022/03/29 04:40:14;;;;;;;45.42;16.15;;;;;;;;;;5093258;28;20201;-71
2022/03/29 04:42:45;;;;;;;63.15;23.63;;;;;;;;;;5101635;28;20205;-71
2022/03/29 04:45:13;;;;;;;58.60;20.98;;;;;;;;;;5112502;28;20250;-71
2022/03/29 04:47:42;;;;;;;66.82;23.40;;;;;;;;;;5112160;28;20593;-71
2022/03/29 04:50:10;;;;;;;40.25;15.43;;;;;;;;;;5112391;28;20684;-71
2022/03/29 04:52:39;;;;;;;111.90;45.00;;;;;;;;;;5086224;28;20694;-71
2022/03/29 04:55:07;;;;;;;131.05;43.70;;;;;;;;;;5092603;28;20706;-69
2022/03/29 04:57:35;;;;;;;53.35;21.35;;;;;;;;;;5092994;28;20292;-70
2022/03/29 05:00:02;;;;;;;48.72;14.85;;;;;;;;;;5092816;28;20674;-70
2022/03/29 05:02:30;;;;;;;48.75;19.63;;;;;;;;;;5092637;28;20210;-69
2022/03/29 05:04:59;;;;;;;38.15;12.93;;;;;;;;;;5092720;28;20214;-70
2022/03/29 05:07:28;;;;;;;36.97;13.45;;;;;;;;;;5092596;28;20238;-70
2022/03/29 05:09:55;;;;;;;35.42;13.65;;;;;;;;;;5092891;28;20232;-70
2022/03/29 05:12:23;;;;;;;34.13;12.00;;;;;;;;;;5092640;28;20213;-71
2022/03/29 05:14:51;;;;;;;35.00;12.93;;;;;;;;;;5092381;28;20234;-71
2022/03/29 05:17:19;;;;;;;43.60;14.00;;;;;;;;;;5092220;28;20203;-71
2022/03/29 05:19:47;;;;;;;40.05;12.70;;;;;;;;;;5111959;28;20590;-70
2022/03/29 05:22:16;;;;;;;27.77;10.15;;;;;;;;;;5111985;28;20210;-69
2022/03/29 05:24:44;;;;;;;35.33;10.68;;;;;;;;;;5111910;28;20215;-69
2022/03/29 05:27:11;;;;;;;33.28;11.48;;;;;;;;;;5111680;28;20206;-70
2022/03/29 05:29:39;;;;;;;45.63;10.93;;;;;;;;;;5111464;28;20286;-70
2022/03/29 05:32:07;;;;;;;24.25;8.55;;;;;;;;;;5111769;28;20668;-69
2022/03/29 05:34:35;;;;;;;30.55;9.98;;;;;;;;;;5111806;28;20235;-71
2022/03/29 05:37:03;;;;;;;29.63;9.13;;;;;;;;;;5111856;28;20209;-70
2022/03/29 05:39:32;;;;;;;27.90;10.23;;;;;;;;;;5111224;28;20223;-70
2022/03/29 05:41:59;;;;;;;44.00;10.00;;;;;;;;;;5111798;28;20253;-70
2022/03/29 05:44:27;;;;;;;38.50;9.50;;;;;;;;;;5111867;28;20209;-70
2022/03/29 05:49:39;;;;;;;27.05;9.00;;;;;;;;;;5112159;28;20202;-70
2022/03/29 05:52:08;;;;;;;29.30;11.07;;;;;;;;;;5085120;28;20205;-70
2022/03/29 05:54:39;;;;;;;30.90;11.90;;;;;;;;;;5092043;28;20210;-70
2022/03/29 05:57:07;;;;;;;28.98;9.55;;;;;;;;;;5092337;28;20291;-70
2022/03/29 05:59:36;;;;;;;31.20;10.70;;;;;;;;;;5092234;28;20208;-70
2022/03/29 06:02:04;;;;;;;35.90;9.27;;;;;;;;;;5092166;28;20208;-70
2022/03/29 06:04:32;;;;;;;25.90;8.80;;;;;;;;;;5092036;28;20707;-70
2022/03/29 06:07:00;;;;;;;37.10;9.27;;;;;;;;;;5091907;28;20947;-70
2022/03/29 06:09:28;;;;;;;24.80;8.57;;;;;;;;;;5091938;28;20972;-71
2022/03/29 06:11:56;;;;;;;22.20;7.30;;;;;;;;;;5092516;28;20506;-70
2022/03/29 06:14:24;;;;;;;23.43;8.67;;;;;;;;;;5091892;28;20965;-70
2022/03/29 06:16:51;;;;;;;23.77;7.80;;;;;;;;;;5098444;28;20480;-70
2022/03/29 06:19:19;;;;;;;36.53;10.13;;;;;;;;;;5110942;28;20441;-70
2022/03/29 06:21:46;;;;;;;22.03;8.37;;;;;;;;;;5111488;28;20445;-71
2022/03/29 06:24:15;;;;;;;29.73;9.20;;;;;;;;;;5111299;28;20445;-71
2022/03/29 06:26:43;;;;;;;27.80;8.80;;;;;;;;;;5111412;28;20500;-71
2022/03/29 06:29:12;;;;;;;42.20;12.13;;;;;;;;;;5110946;28;21018;-71
2022/03/29 06:31:40;;;;;;;22.27;8.37;;;;;;;;;;5111179;28;20469;-71
2022/03/29 06:34:08;;;;;;;25.20;9.33;;;;;;;;;;5111304;28;20541;-71
2022/03/29 06:36:36;;;;;;;24.50;10.20;;;;;;;;;;5111089;28;20488;-71
2022/03/29 06:39:03;;;;;;;24.27;9.73;;;;;;;;;;5111329;28;20472;-71
2022/03/29 06:41:32;;;;;;;26.37;9.20;;;;;;;;;;5086143;28;20975;-71
2022/03/29 06:43:59;;;;;;;28.30;9.70;;;;;;;;;;5095467;28;20455;-71
2022/03/29 06:46:28;;;;;;;32.63;10.90;;;;;;;;;;5095355;28;20461;-71
2022/03/29 06:48:56;;;;;;;24.80;9.50;;;;;;;;;;5095484;28;20479;-71
2022/03/29 06:51:24;;;;;;;28.73;10.70;;;;;;;;;;5095010;28;20457;-71
2022/03/29 06:53:51;;;;;;;28.90;10.57;;;;;;;;;;5095155;28;20451;-71
2022/03/29 06:56:19;;;;;;;27.27;9.77;;;;;;;;;;5095349;28;20497;-71
2022/03/29 06:58:47;;;;;;;26.77;9.50;;;;;;;;;;5095175;28;20524;-71
2022/03/29 07:01:14;;;;;;;32.23;11.33;;;;;;;;;;5095116;28;20449;-71
2022/03/29 07:03:43;;;;;;;34.23;11.17;;;;;;;;;;5094954;28;20452;-71
2022/03/29 07:06:10;;;;;;;37.00;10.83;;;;;;;;;;5114497;28;20448;-71
2022/03/29 07:11:16;;;;;;;27.47;11.10;;;;;;;;;;5114646;28;20465;-71
2022/03/29 07:11:24;;;;;;;28.43;11.87;;;;;;;;;;5114283;28;20924;-71
2022/03/29 07:13:54;;;;;;;34.53;11.10;;;;;;;;;;5114901;28;20470;-71
2022/03/29 07:16:22;;;;;;;25.97;11.27;;;;;;;;;;5114145;28;20492;-72
2022/03/29 07:18:54;;;;;;;27.37;11.20;;;;;;;;;;5114274;28;21013;-72
2022/03/29 07:21:22;;;;;;;31.53;11.20;;;;;;;;;;5114145;28;20827;-72
2022/03/29 07:23:50;;;;;;;26.20;10.90;;;;;;;;;;5114021;28;20956;-72
2022/03/29 07:26:17;;;;;;;28.10;9.60;;;;;;;;;;5114116;28;20466;-71
2022/03/29 07:28:46;;;;;;;30.83;9.40;;;;;;;;;;5113967;28;20443;-71
2022/03/29 07:31:14;;;;;;;35.93;12.17;;;;;;;;;;5113943;28;21009;-71
2022/03/29 07:33:41;;;;;;;25.30;9.50;;;;;;;;;;5114180;28;20555;-71
2022/03/29 07:36:10;;;;;;;27.30;11.43;;;;;;;;;;5107331;28;20922;-71
2022/03/29 07:38:37;;;;;;;29.10;10.43;;;;;;;;;;5094172;28;20473;-72
2022/03/29 07:41:05;;;;;;;30.17;10.43;;;;;;;;;;5094062;28;20469;-71
2022/03/29 07:43:32;;;;;;;25.20;9.13;;;;;;;;;;5094552;28;20523;-72
2022/03/29 07:45:59;;;;;;;27.50;10.70;;;;;;;;;;5094263;28;20454;-71
2022/03/29 07:48:28;;;;;;;35.10;10.73;;;;;;;;;;5094228;28;21020;-71
2022/03/29 07:50:55;;;;;;;33.13;9.00;;;;;;;;;;5094167;28;20444;-71
2022/03/29 07:53:25;;;;;;;25.20;9.47;;;;;;;;;;5093654;28;20533;-71
2022/03/29 07:55:54;;;;;;;25.20;8.80;;;;;;;;;;5093900;28;20551;-71
2022/03/29 07:58:21;;;;;;;35.17;9.90;;;;;;;;;;5093953;28;20954;-72
2022/03/29 08:00:51;;;;;;;23.77;8.80;;;;;;;;;;5094173;28;20454;-72
2022/03/29 08:03:20;;;;;;;32.97;9.70;;;;;;;;;;5093593;28;20981;-72
2022/03/29 08:05:48;;;;;;;25.50;8.90;;;;;;;;;;5086834;28;20540;-71
2022/03/29 08:08:16;;;;;;;34.13;8.30;;;;;;;;;;5093816;28;20842;-72
2022/03/29 08:10:46;;;;;;;24.03;8.70;;;;;;;;;;5093917;28;20464;-71
2022/03/29 08:13:14;;;;;;;30.63;10.27;;;;;;;;;;5093455;28;20964;-71
2022/03/29 08:15:43;;;;;;;25.33;8.90;;;;;;;;;;5093667;28;20920;-71
2022/03/29 08:18:10;;;;;;;29.20;9.40;;;;;;;;;;5093480;28;20957;-72
2022/03/29 08:20:38;;;;;;;22.70;8.30;;;;;;;;;;5093457;28;20465;-72
2022/03/29 08:23:06;;;;;;;26.07;9.20;;;;;;;;;;5093573;28;20450;-71
2022/03/29 08:25:34;;;;;;;26.37;7.70;;;;;;;;;;5093465;28;20463;-71
2022/03/29 08:28:03;;;;;;;25.87;9.97;;;;;;;;;;5093564;28;20460;-71
2022/03/29 08:30:31;;;;;;;26.70;7.60;;;;;;;;;;5086650;28;20461;-72
2022/03/29 08:32:59;;;;;;;21.30;8.30;;;;;;;;;;5093230;28;20902;-71
2022/03/29 08:35:27;;;;;;;25.20;8.40;;;;;;;;;;5092927;28;20461;-71
2022/03/29 08:37:55;;;;;;;25.40;8.60;;;;;;;;;;5093343;28;20438;-73
2022/03/29 08:40:26;;;;;;;36.80;8.77;;;;;;;;;;5093129;28;20973;-72
2022/03/29 08:42:55;;;;;;;26.17;8.10;;;;;;;;;;5093303;28;20441;-72
2022/03/29 08:45:26;;;;;;;31.90;9.60;;;;;;;;;;5092830;28;20445;-72
2022/03/29 08:47:55;;;;;;;26.97;8.87;;;;;;;;;;5092857;28;20545;-72
2022/03/29 08:50:23;;;;;;;24.80;8.73;;;;;;;;;;5092952;28;20970;-72
2022/03/29 08:52:52;;;;;;;24.33;8.97;;;;;;;;;;5093035;28;20943;-72
2022/03/29 08:55:19;;;;;;;28.57;10.20;;;;;;;;;;5092665;28;20446;-72
2022/03/29 08:57:52;;;;;;;27.43;9.50;;;;;;;;;;5092712;28;20450;-71
2022/03/29 09:00:20;;;;;;;26.90;8.80;;;;;;;;;;5086687;28;20501;-72
2022/03/29 09:02:49;;;;;;;28.27;8.80;;;;;;;;;;5112468;28;20446;-73
2022/03/29 09:05:17;;;;;;;30.23;9.50;;;;;;;;;;5111479;28;20445;-72
2022/03/29 09:07:49;;;;;;;25.17;9.37;;;;;;;;;;5112242;28;20475;-72
2022/03/29 09:10:16;;;;;;;24.43;8.80;;;;;;;;;;5111975;28;20451;-72
2022/03/29 09:12:44;;;;;;;27.17;8.70;;;;;;;;;;5112029;28;20449;-72
2022/03/29 09:15:12;;;;;;;21.47;8.30;;;;;;;;;;5111911;28;20982;-73
2022/03/29 09:17:40;;;;;;;33.03;9.40;;;;;;;;;;5111990;28;20474;-72
2022/03/29 09:20:10;;;;;;;28.60;8.10;;;;;;;;;;5111893;28;20457;-72
2022/03/29 09:22:41;;;;;;;21.53;8.50;;;;;;;;;;5111919;28;20457;-72
2022/03/29 09:25:09;;;;;;;26.77;9.10;;;;;;;;;;5111920;28;20441;-72
2022/03/29 09:27:52;;;;;;;23.77;9.77;;;;;;;;;;5111873;28;20523;-72
2022/03/29 09:30:20;;;;;;;23.80;8.83;;;;;;;;;;5109989;28;20540;-72
2022/03/29 09:32:54;;;;;;;21.40;8.50;;;;;;;;;;5111889;28;20834;-72
2022/03/29 09:35:23;;;;;;;26.77;8.50;;;;;;;;;;5111463;28;20460;-72
2022/03/29 09:37:51;;;;;;;23.97;7.53;;;;;;;;;;5111544;28;20486;-71
2022/03/29 09:40:19;;;;;;;21.67;8.17;;;;;;;;;;5111548;28;20474;-72
2022/03/29 09:43:02;;;;;;;23.70;8.20;;;;;;;;;;5111869;28;20463;-72
2022/03/29 09:45:41;;;;;;;35.10;10.07;;;;;;;;;;5111665;28;20451;-72
2022/03/29 09:48:39;;;;;;;26.60;8.00;;;;;;;;;;5111787;28;20483;-72
2022/03/29 09:51:19;;;;;;;31.13;8.40;;;;;;;;;;5048812;28;20452;-72
2022/03/29 09:53:48;;;;;;;21.30;8.13;;;;;;;;;;5102424;28;20483;-72
2022/03/29 09:56:16;;;;;;;23.80;7.50;;;;;;;;;;5111700;28;20483;-71
2022/03/29 09:58:44;;;;;;;22.60;7.63;;;;;;;;;;5111477;28;20454;-72
2022/03/29 10:01:27;;;;;;;22.00;8.40;;;;;;;;;;5111635;28;20449;-72
2022/03/29 10:03:54;;;;;;;25.13;8.67;;;;;;;;;;5109636;28;20554;-72
2022/03/29 10:06:24;;;;;;;21.63;8.13;;;;;;;;;;5111531;28;20449;-72
2022/03/29 10:11:38;;;;;;;23.10;8.33;;;;;;;;;;5111583;28;20855;-71
2022/03/29 10:14:06;;;;;;;24.37;7.93;;;;;;;;;;5100275;28;20507;-72
2022/03/29 10:16:35;;;;;;;23.33;8.10;;;;;;;;;;5094978;28;20872;-72
2022/03/29 10:19:03;;;;;;;25.60;9.13;;;;;;;;;;5095860;28;20447;-72
2022/03/29 10:21:32;;;;;;;23.67;8.23;;;;;;;;;;5095887;28;20440;-71
2022/03/29 10:24:01;;;;;;;24.33;9.17;;;;;;;;;;5095811;28;20452;-72
2022/03/29 10:26:29;;;;;;;23.27;7.33;;;;;;;;;;5095750;28;21016;-71
2022/03/29 10:28:56;;;;;;;22.70;7.70;;;;;;;;;;5096238;28;20471;-71
2022/03/29 10:31:27;;;;;;;22.50;8.30;;;;;;;;;;5115063;28;20462;-71
2022/03/29 10:34:20;;;;;;;22.73;7.90;;;;;;;;;;5115320;28;21013;-72
2022/03/29 10:37:03;;;;;;;24.30;8.73;;;;;;;;;;5115035;28;20486;-71
2022/03/29 10:39:47;;;;;;;28.47;9.60;;;;;;;;;;5115027;28;21068;-71
2022/03/29 10:42:42;;;;;;;25.60;8.97;;;;;;;;;;5115735;28;20453;-71
2022/03/29 10:45:12;;;;;;;40.77;11.43;;;;;;;;;;5114932;28;20471;-72
2022/03/29 10:47:40;;;;;;;28.70;9.57;;;;;;;;;;5115199;28;20486;-71
2022/03/29 10:50:10;;;;;;;25.53;8.97;;;;;;;;;;5115112;28;20439;-72
2022/03/29 10:52:43;;;;;;;20.90;7.90;;;;;;;;;;5115178;28;20452;-72
2022/03/29 10:55:18;;;;;;;31.57;8.47;;;;;;;;;;5114624;28;20528;-71
2022/03/29 10:58:00;;;;;;;29.60;10.40;;;;;;;;;;5088469;28;20490;-72
2022/03/29 11:00:31;;;;;;;32.07;9.57;;;;;;;;;;5095104;28;20482;-71
2022/03/29 11:03:22;;;;;;;40.70;10.63;;;;;;;;;;5095326;28;20450;-71
2022/03/29 11:06:06;;;;;;;33.03;10.53;;;;;;;;;;5079973;28;20465;-71
2022/03/29 11:08:36;;;;;;;28.87;9.30;;;;;;;;;;5095143;28;20446;-71
2022/03/29 11:11:03;;;;;;;29.23;8.30;;;;;;;;;;5094585;28;20457;-71
2022/03/29 11:13:32;;;;;;;22.17;8.97;;;;;;;;;;5095289;28;20830;-71
2022/03/29 11:16:02;;;;;;;33.07;9.37;;;;;;;;;;5095156;28;20497;-71
2022/03/29 11:18:50;;;;;;;37.73;10.27;;;;;;;;;;5095135;28;20457;-71
2022/03/29 11:21:32;;;;;;;28.70;9.53;;;;;;;;;;5094839;28;20446;-71
2022/03/29 11:24:01;;;;;;;26.20;8.00;;;;;;;;;;5094934;28;20830;-71
2022/03/29 11:26:29;;;;;;;24.73;8.00;;;;;;;;;;5094368;28;20462;-71
2022/03/29 11:28:57;;;;;;;25.63;7.67;;;;;;;;;;5094539;28;20454;-71
2022/03/29 11:31:25;;;;;;;21.10;7.90;;;;;;;;;;5094765;28;20452;-71
2022/03/29 11:33:56;;;;;;;24.67;7.83;;;;;;;;;;5094424;28;20488;-72
2022/03/29 11:36:24;;;;;;;26.30;7.40;;;;;;;;;;5094396;28;20452;-72
2022/03/29 11:38:52;;;;;;;30.13;8.73;;;;;;;;;;5094395;28;20468;-72
2022/03/29 11:41:26;;;;;;;28.40;8.30;;;;;;;;;;5094354;28;20981;-72
2022/03/29 11:43:57;;;;;;;25.70;7.60;;;;;;;;;;5094359;28;20804;-72
2022/03/29 11:46:25;;;;;;;21.03;7.83;;;;;;;;;;5094220;28;20513;-72
2022/03/29 11:48:53;;;;;;;26.90;9.37;;;;;;;;;;5094550;28;20914;-72
2022/03/29 11:51:21;;;;;;;26.47;9.30;;;;;;;;;;5087111;28;20454;-72
2022/03/29 11:53:58;;;;;;;24.03;8.73;;;;;;;;;;5094291;28;20453;-72
2022/03/29 11:56:28;;;;;;;23.80;8.30;;;;;;;;;;5093969;28;20501;-72
2022/03/29 11:58:56;;;;;;;24.47;8.10;;;;;;;;;;5093827;28;20446;-71
2022/03/29 12:01:27;;;;;;;22.97;7.10;;;;;;;;;;5093783;28;20447;-71
2022/03/29 12:03:55;;;;;;;22.83;7.80;;;;;;;;;;5094309;28;20940;-71
2022/03/29 12:06:23;;;;;;;24.57;8.57;;;;;;;;;;5094140;28;20452;-71
2022/03/29 12:08:53;;;;;;;24.23;7.47;;;;;;;;;;5093960;28;20438;-71
2022/03/29 12:11:22;;;;;;;27.17;8.60;;;;;;;;;;5093528;28;20549;-71
2022/03/29 12:14:00;;;;;;;21.70;7.23;;;;;;;;;;5093830;28;20472;-71
2022/03/29 12:16:28;;;;;;;22.43;7.10;;;;;;;;;;5093604;28;20487;-71
2022/03/29 12:18:55;;;;;;;29.47;8.40;;;;;;;;;;5093554;28;20935;-72
2022/03/29 12:21:23;;;;;;;27.17;7.40;;;;;;;;;;5093357;28;20972;-72
2022/03/29 12:23:58;;;;;;;22.73;6.70;;;;;;;;;;5093448;28;20941;-72
2022/03/29 12:26:27;;;;;;;24.60;7.47;;;;;;;;;;5093876;28;20544;-72
2022/03/29 12:28:56;;;;;;;21.50;6.93;;;;;;;;;;5093435;28;20457;-71
2022/03/29 12:31:24;;;;;;;20.60;6.50;;;;;;;;;;5112889;28;20954;-72
2022/03/29 12:33:53;;;;;;;20.80;7.03;;;;;;;;;;5112801;28;20507;-72
2022/03/29 12:36:21;;;;;;;22.07;6.93;;;;;;;;;;5112866;28;20456;-71
2022/03/29 12:38:49;;;;;;;19.17;7.10;;;;;;;;;;5111269;28;20493;-71
2022/03/29 12:41:17;;;;;;;24.70;7.67;;;;;;;;;;5112694;28;20456;-71
2022/03/29 12:43:53;;;;;;;18.43;6.03;;;;;;;;;;5095947;28;20456;-71
2022/03/29 12:46:22;;;;;;;24.60;6.93;;;;;;;;;;5093131;28;20969;-71
2022/03/29 12:48:50;;;;;;;20.73;6.33;;;;;;;;;;5093218;28;21081;-72
2022/03/29 12:51:18;;;;;;;28.23;8.63;;;;;;;;;;5092755;28;20454;-71
2022/03/29 12:53:55;;;;;;;21.13;6.30;;;;;;;;;;5092926;28;20957;-71
2022/03/29 12:56:28;;;;;;;25.43;7.10;;;;;;;;;;5092949;28;20463;-72
2022/03/29 12:58:56;;;;;;;21.30;6.07;;;;;;;;;;5093028;28;20872;-72
2022/03/29 13:01:29;;;;;;;29.63;8.17;;;;;;;;;;5092520;28;20510;-71
2022/03/29 13:04:06;;;;;;;18.63;7.00;;;;;;;;;;5092896;28;20530;-72
2022/03/29 13:06:40;;;;;;;20.30;6.63;;;;;;;;;;5092741;28;20441;-72
2022/03/29 13:09:08;;;;;;;21.87;7.00;;;;;;;;;;5092546;28;20490;-72
2022/03/29 13:11:37;;;;;;;22.77;7.93;;;;;;;;;;5092618;28;20444;-72
2022/03/29 13:14:06;;;;;;;20.63;6.73;;;;;;;;;;5092674;28;20525;-72
2022/03/29 13:16:34;;;;;;;22.23;7.67;;;;;;;;;;5092838;28;20443;-74
2022/03/29 13:19:03;;;;;;;25.43;7.80;;;;;;;;;;5112143;28;21004;-72
2022/03/29 13:21:32;;;;;;;24.70;8.10;;;;;;;;;;5112049;28;20533;-72
2022/03/29 13:24:06;;;;;;;25.13;6.63;;;;;;;;;;5111983;28;20457;-72
2022/03/29 13:26:34;;;;;;;22.83;8.00;;;;;;;;;;5111847;28;20453;-72
2022/03/29 13:29:02;;;;;;;28.97;7.23;;;;;;;;;;5111811;28;20901;-72
2022/03/29 13:31:32;;;;;;;20.80;7.10;;;;;;;;;;5112152;28;20456;-72
2022/03/29 13:34:03;;;;;;;22.07;7.60;;;;;;;;;;5111815;28;20505;-72
2022/03/29 13:36:30;;;;;;;21.57;7.07;;;;;;;;;;5111905;28;20441;-72
2022/03/29 13:38:58;;;;;;;22.80;7.87;;;;;;;;;;5111078;28;20499;-72
2022/03/29 13:41:26;;;;;;;23.60;6.90;;;;;;;;;;5111837;28;20436;-72
2022/03/29 13:43:54;;;;;;;24.00;7.70;;;;;;;;;;5111961;28;20444;-72
2022/03/29 13:46:21;;;;;;;22.80;7.47;;;;;;;;;;5111955;28;20531;-72
2022/03/29 13:48:49;;;;;;;20.77;7.30;;;;;;;;;;5112139;28;20505;-72
2022/03/29 13:51:19;;;;;;;34.87;9.27;;;;;;;;;;5111078;28;20452;-71
2022/03/29 13:53:47;;;;;;;22.60;8.30;;;;;;;;;;5111399;28;20446;-73
2022/03/29 13:56:15;;;;;;;22.23;7.60;;;;;;;;;;5111921;28;20453;-72
2022/03/29 13:58:42;;;;;;;23.50;7.93;;;;;;;;;;5111426;28;21070;-72
2022/03/29 14:01:10;;;;;;;21.93;7.97;;;;;;;;;;5111202;28;20974;-72
2022/03/29 14:03:37;;;;;;;20.70;7.07;;;;;;;;;;5111523;28;20444;-72
2022/03/29 14:06:06;;;;;;;19.80;7.30;;;;;;;;;;5111687;28;20456;-72
2022/03/29 14:08:35;;;;;;;23.07;9.47;;;;;;;;;;5111677;28;20832;-72
2022/03/29 14:11:03;;;;;;;22.23;7.47;;;;;;;;;;5111502;28;20444;-72
2022/03/29 14:13:32;;;;;;;23.33;7.80;;;;;;;;;;5111933;28;20476;-72
2022/03/29 14:16:01;;;;;;;26.00;7.50;;;;;;;;;;5111477;28;20527;-72
2022/03/29 14:18:29;;;;;;;22.47;7.40;;;;;;;;;;5111299;28;20483;-71
2022/03/29 14:20:58;;;;;;;22.13;7.63;;;;;;;;;;5111557;28;20497;-72
2022/03/29 14:23:27;;;;;;;21.03;6.40;;;;;;;;;;5111139;28;20475;-72
2022/03/29 14:25:56;;;;;;;23.70;7.40;;;;;;;;;;5111519;28;20521;-72
2022/03/29 14:28:23;;;;;;;27.60;8.27;;;;;;;;;;5111409;28;20466;-72
2022/03/29 14:30:51;;;;;;;25.33;8.60;;;;;;;;;;5111267;28;20839;-72
2022/03/29 14:33:19;;;;;;;28.47;8.13;;;;;;;;;;5111003;28;20444;-72
2022/03/29 14:35:49;;;;;;;25.67;8.43;;;;;;;;;;5111157;28;20446;-71
2022/03/29 14:38:17;;;;;;;22.50;7.50;;;;;;;;;;5111205;28;20493;-71
2022/03/29 14:40:46;;;;;;;21.20;7.40;;;;;;;;;;5085122;28;20450;-72
2022/03/29 14:43:15;;;;;;;32.87;9.47;;;;;;;;;;5091522;28;21021;-71
2022/03/29 14:45:43;;;;;;;23.90;8.30;;;;;;;;;;5091465;28;20951;-71
2022/03/29 14:48:10;;;;;;;23.00;8.20;;;;;;;;;;5091707;28;20479;-71
2022/03/29 14:50:38;;;;;;;22.30;7.60;;;;;;;;;;5091658;28;20454;-71